createdAt,value
2022-09-07T00:02:30.165Z,3.70
2022-09-07T00:05:17.204Z,3.90
2022-09-07T00:08:04.256Z,3.70
2022-09-07T00:10:53.905Z,3.40
2022-09-07T00:13:42.781Z,3.77
2022-09-07T00:16:30.626Z,3.77
2022-09-07T00:19:17.930Z,3.77
2022-09-07T00:22:05.038Z,3.87
2022-09-07T00:24:51.986Z,3.80
2022-09-07T00:27:39.406Z,4.20
2022-09-07T00:30:26.390Z,4.50
2022-09-07T00:33:13.344Z,4.53
2022-09-07T00:36:00.314Z,3.93
2022-09-07T00:38:47.697Z,4.67
2022-09-07T00:41:34.683Z,4.43
2022-09-07T00:44:43.611Z,4.93
2022-09-07T00:47:42.068Z,4.50
2022-09-07T00:50:46.174Z,3.80
2022-09-07T00:53:43.154Z,3.73
2022-09-07T00:56:34.578Z,2.43
2022-09-07T00:59:27.089Z,3.33
2022-09-07T01:02:17.337Z,3.80
2022-09-07T01:05:15.701Z,3.77
2022-09-07T01:08:03.524Z,3.77
2022-09-07T01:10:50.771Z,3.73
2022-09-07T01:13:40.688Z,4.50
2022-09-07T01:16:43.108Z,4.33
2022-09-07T01:19:54.970Z,4.77
2022-09-07T01:23:21.469Z,4.83
2022-09-07T01:26:35.205Z,3.67
2022-09-07T01:29:36.052Z,3.87
2022-09-07T01:32:44.613Z,4.60
2022-09-07T01:35:34.454Z,4.00
2022-09-07T01:38:33.685Z,3.90
2022-09-07T01:41:44.330Z,4.23
2022-09-07T01:44:39.398Z,4.23
2022-09-07T01:47:37.071Z,3.93
2022-09-07T01:50:49.605Z,4.50
2022-09-07T01:53:46.383Z,4.43
2022-09-07T01:56:38.779Z,4.80
2022-09-07T01:59:47.226Z,5.07
2022-09-07T02:02:42.077Z,4.37
2022-09-07T02:05:36.824Z,4.53
2022-09-07T02:08:31.083Z,4.80
2022-09-07T02:11:35.844Z,4.37
2022-09-07T02:14:27.471Z,5.03
2022-09-07T02:17:22.396Z,4.57
2022-09-07T02:20:19.153Z,4.97
2022-09-07T02:23:12.449Z,4.90
2022-09-07T02:26:04.065Z,4.40
2022-09-07T02:28:51.440Z,3.83
2022-09-07T02:31:38.419Z,3.50
2022-09-07T02:34:25.419Z,3.87
2022-09-07T02:37:15.580Z,4.20
2022-09-07T02:40:03.465Z,4.40
2022-09-07T02:42:50.726Z,3.70
2022-09-07T02:46:24.993Z,3.53
2022-09-07T02:49:36.656Z,3.70
2022-09-07T02:53:01.391Z,3.57
2022-09-07T02:56:02.701Z,4.03
2022-09-07T02:58:55.355Z,4.30
2022-09-07T03:02:04.718Z,3.40
2022-09-07T03:05:03.938Z,3.77
2022-09-07T03:08:01.305Z,3.53
2022-09-07T03:10:49.899Z,3.80
2022-09-07T03:13:36.830Z,3.87
2022-09-07T03:16:23.920Z,3.60
2022-09-07T03:19:10.946Z,3.40
2022-09-07T03:21:57.887Z,3.60
2022-09-07T03:24:44.818Z,3.90
2022-09-07T03:27:32.634Z,3.80
2022-09-07T03:30:19.684Z,4.10
2022-09-07T03:33:07.122Z,3.97
2022-09-07T03:36:00.058Z,3.97
2022-09-07T03:38:47.037Z,3.77
2022-09-07T03:41:34.204Z,3.73
2022-09-07T03:44:21.752Z,3.77
2022-09-07T03:47:08.746Z,4.07
2022-09-07T03:49:55.812Z,4.17
2022-09-07T03:52:42.758Z,4.27
2022-09-07T03:55:29.733Z,4.30
2022-09-07T03:58:16.665Z,3.90
2022-09-07T04:01:12.364Z,4.07
2022-09-07T04:04:02.721Z,3.87
2022-09-07T04:06:50.730Z,3.87
2022-09-07T04:09:37.847Z,4.00
2022-09-07T04:12:26.053Z,3.73
2022-09-07T04:15:13.005Z,4.27
2022-09-07T04:18:00.833Z,3.83
2022-09-07T04:20:50.634Z,3.93
2022-09-07T04:23:39.537Z,3.60
2022-09-07T04:26:29.281Z,4.10
2022-09-07T04:29:16.286Z,3.80
2022-09-07T04:32:03.250Z,3.90
2022-09-07T04:34:51.894Z,3.97
2022-09-07T04:37:38.865Z,3.70
2022-09-07T04:40:25.841Z,4.13
2022-09-07T04:43:13.190Z,3.87
2022-09-07T04:46:05.017Z,3.97
2022-09-07T04:49:01.054Z,3.60
2022-09-07T04:51:48.013Z,3.67
2022-09-07T04:54:35.021Z,3.83
2022-09-07T04:57:24.527Z,4.00
2022-09-07T05:00:12.054Z,3.73
2022-09-07T05:02:58.992Z,3.37
2022-09-07T05:05:46.021Z,3.37
2022-09-07T05:08:47.746Z,3.40
2022-09-07T05:11:34.680Z,3.60
2022-09-07T05:14:21.653Z,3.40
2022-09-07T05:17:08.890Z,3.77
2022-09-07T05:19:55.940Z,3.30
2022-09-07T05:22:42.898Z,3.70
2022-09-07T05:25:31.314Z,3.67
2022-09-07T05:28:19.513Z,3.40
2022-09-07T05:31:19.783Z,3.33
2022-09-07T05:37:14.365Z,3.27
2022-09-07T05:40:01.369Z,3.43
2022-09-07T05:42:48.402Z,3.53
2022-09-07T05:45:35.395Z,2.90
2022-09-07T05:48:22.436Z,3.13
2022-09-07T05:51:10.343Z,3.53
2022-09-07T05:53:57.351Z,3.40
2022-09-07T05:56:44.317Z,3.73
2022-09-07T05:59:31.298Z,3.67
2022-09-07T06:02:18.522Z,3.40
2022-09-07T06:05:06.218Z,3.37
2022-09-07T06:07:53.214Z,3.30
2022-09-07T06:10:43.254Z,3.50
2022-09-07T06:13:30.422Z,3.20
2022-09-07T06:16:18.651Z,3.60
2022-09-07T06:19:07.225Z,3.07
2022-09-07T06:21:54.332Z,3.40
2022-09-07T06:24:41.387Z,3.13
2022-09-07T06:27:28.672Z,3.27
2022-09-07T06:30:15.911Z,3.20
2022-09-07T06:33:02.925Z,3.47
2022-09-07T06:36:01.493Z,3.70
2022-09-07T06:38:49.779Z,3.87
2022-09-07T06:44:49.082Z,3.60
2022-09-07T06:47:36.693Z,3.97
2022-09-07T06:50:23.660Z,3.53
2022-09-07T06:56:19.075Z,3.37
2022-09-07T06:59:06.022Z,3.67
2022-09-07T07:01:52.957Z,3.73
2022-09-07T07:04:41.338Z,4.33
2022-09-07T07:07:28.465Z,3.80
2022-09-07T07:10:15.469Z,6.60
2022-09-07T07:13:02.415Z,7.53
2022-09-07T07:15:50.603Z,5.97
2022-09-07T07:18:38.570Z,5.53
2022-09-07T07:21:25.604Z,4.23
2022-09-07T07:24:12.553Z,3.70
2022-09-07T07:26:59.533Z,3.90
2022-09-07T07:29:46.470Z,3.80
2022-09-07T07:32:34.522Z,3.77
2022-09-07T07:35:22.647Z,3.30
2022-09-07T07:44:25.338Z,2.97
2022-09-07T07:47:12.231Z,3.20
2022-09-07T07:56:13.761Z,3.43
2022-09-07T07:59:01.550Z,3.07
2022-09-07T08:01:48.589Z,3.43
2022-09-07T08:04:35.850Z,3.30
2022-09-07T08:07:22.716Z,3.37
2022-09-07T08:10:10.199Z,3.60
2022-09-07T08:12:57.170Z,3.00
2022-09-07T08:15:46.258Z,3.20
2022-09-07T08:18:34.602Z,3.37
2022-09-07T08:21:21.516Z,2.93
2022-09-07T08:24:08.470Z,2.77
2022-09-07T08:26:55.492Z,2.93
2022-09-07T08:29:42.948Z,2.07
2022-09-07T08:32:29.853Z,2.50
2022-09-07T08:35:16.819Z,2.50
2022-09-07T08:38:03.714Z,2.60
2022-09-07T08:40:51.522Z,2.57
2022-09-07T08:43:52.123Z,2.40
2022-09-07T08:47:01.509Z,2.63
2022-09-07T08:49:51.544Z,2.60
2022-09-07T08:52:41.658Z,2.40
2022-09-07T08:55:31.966Z,2.20
2022-09-07T08:58:48.132Z,2.30
2022-09-07T09:01:41.592Z,2.10
2022-09-07T09:04:29.976Z,2.23
2022-09-07T09:07:35.408Z,2.10
2022-09-07T09:10:36.712Z,2.50
2022-09-07T09:13:41.412Z,2.80
2022-09-07T09:16:42.705Z,2.60
2022-09-07T09:19:55.426Z,2.60
2022-09-07T09:22:44.374Z,2.47
2022-09-07T09:25:33.820Z,2.67
2022-09-07T09:28:21.167Z,2.57
2022-09-07T09:31:34.168Z,2.20
2022-09-07T09:34:24.088Z,2.20
2022-09-07T09:37:12.597Z,1.83
2022-09-07T09:40:03.001Z,1.90
2022-09-07T09:43:17.319Z,2.10
2022-09-07T09:46:18.630Z,1.37
2022-09-07T09:49:26.300Z,1.80
2022-09-07T09:52:42.957Z,1.97
2022-09-07T09:55:36.034Z,1.90
2022-09-07T10:04:53.812Z,2.00
2022-09-07T10:07:51.891Z,1.90
2022-09-07T10:10:53.237Z,2.00
2022-09-07T10:13:57.765Z,1.60
2022-09-07T10:16:45.855Z,1.67
2022-09-07T10:19:37.984Z,1.50
2022-09-07T10:22:38.705Z,1.70
2022-09-07T10:25:41.628Z,1.90
2022-09-07T10:29:06.525Z,2.00
2022-09-07T10:31:46.844Z,1.80
2022-09-07T10:35:00.933Z,1.40
2022-09-07T10:37:59.814Z,1.60
2022-09-07T10:41:09.671Z,2.00
2022-09-07T10:43:57.612Z,1.60
2022-09-07T10:47:06.567Z,1.70
2022-09-07T10:53:40.030Z,1.90
2022-09-07T10:56:33.192Z,1.87
2022-09-07T11:06:25.634Z,1.53
2022-09-07T11:09:35.548Z,1.67
2022-09-07T11:12:28.981Z,1.77
2022-09-07T11:15:23.597Z,1.83
2022-09-07T11:18:23.550Z,1.70
2022-09-07T11:21:56.081Z,1.90
2022-09-07T11:28:12.813Z,2.17
2022-09-07T11:31:04.247Z,2.07
2022-09-07T11:37:23.195Z,2.00
2022-09-07T11:40:22.488Z,2.10
2022-09-07T11:43:16.484Z,2.07
2022-09-07T11:46:11.582Z,2.00
2022-09-07T11:48:59.000Z,2.13
2022-09-07T11:51:54.017Z,2.30
2022-09-07T11:54:45.810Z,1.90
2022-09-07T11:57:38.827Z,2.10
2022-09-07T12:01:03.407Z,1.83
2022-09-07T12:04:05.744Z,2.00
2022-09-07T12:07:33.428Z,2.00
2022-09-07T12:10:47.332Z,1.97
2022-09-07T12:13:53.146Z,1.87
2022-09-07T12:16:53.401Z,1.83
2022-09-07T12:19:40.425Z,2.20
2022-09-07T12:22:27.415Z,2.10
2022-09-07T12:25:18.437Z,1.70
2022-09-07T12:28:05.367Z,2.07
2022-09-07T12:30:57.232Z,1.60
2022-09-07T12:33:44.185Z,1.73
2022-09-07T12:36:31.005Z,1.90
2022-09-07T12:39:20.907Z,1.80
2022-09-07T12:45:29.963Z,2.00
2022-09-07T12:48:16.765Z,1.90
2022-09-07T12:51:10.313Z,2.10
2022-09-07T12:54:15.568Z,1.70
2022-09-07T12:57:41.510Z,1.90
2022-09-07T13:01:24.426Z,1.80
2022-09-07T13:04:26.446Z,1.80
2022-09-07T13:07:38.034Z,2.40
2022-09-07T13:10:32.702Z,1.90
2022-09-07T13:19:50.943Z,1.70
2022-09-07T13:22:37.787Z,1.80
2022-09-07T13:25:27.842Z,1.83
2022-09-07T13:28:25.456Z,1.80
2022-09-07T13:31:42.390Z,2.00
2022-09-07T13:34:31.973Z,2.10
2022-09-07T13:37:24.949Z,1.90
2022-09-07T13:40:18.902Z,1.97
2022-09-07T13:43:16.383Z,1.97
2022-09-07T13:46:10.781Z,1.50
2022-09-07T13:49:25.352Z,1.80
2022-09-07T13:52:31.115Z,2.07
2022-09-07T13:55:32.814Z,1.73
2022-09-07T13:58:39.992Z,1.90
2022-09-07T14:01:28.747Z,1.80
2022-09-07T14:04:32.865Z,1.50
2022-09-07T14:07:21.798Z,1.80
2022-09-07T14:10:21.161Z,2.00
2022-09-07T14:13:12.232Z,1.80
2022-09-07T14:15:59.146Z,1.63
2022-09-07T14:18:46.353Z,1.90
2022-09-07T14:21:33.476Z,1.90
2022-09-07T14:24:32.319Z,2.03
2022-09-07T14:27:22.882Z,1.80
2022-09-07T14:30:18.933Z,1.67
2022-09-07T14:33:20.164Z,1.90
2022-09-07T14:36:29.569Z,1.93
2022-09-07T14:39:16.765Z,1.93
2022-09-07T14:42:04.767Z,2.00
2022-09-07T14:45:19.406Z,1.50
2022-09-07T14:48:13.721Z,1.97
2022-09-07T14:51:19.359Z,1.93
2022-09-07T14:54:08.110Z,1.60
2022-09-07T14:57:09.073Z,1.90
2022-09-07T14:59:57.385Z,1.80
2022-09-07T15:02:44.410Z,1.60
2022-09-07T15:05:31.552Z,1.57
2022-09-07T15:08:34.502Z,1.50
2022-09-07T15:11:34.468Z,1.80
2022-09-07T15:14:21.568Z,1.80
2022-09-07T15:20:41.092Z,1.63
2022-09-07T15:23:28.004Z,1.60
2022-09-07T15:29:23.930Z,2.17
2022-09-07T15:32:11.237Z,1.87
2022-09-07T15:34:58.234Z,1.80
2022-09-07T15:38:01.889Z,1.70
2022-09-07T15:41:21.940Z,1.87
2022-09-07T15:44:05.126Z,1.80
2022-09-07T15:49:59.019Z,1.80
2022-09-07T15:52:46.451Z,1.53
2022-09-07T15:55:33.903Z,1.53
2022-09-07T15:58:21.770Z,1.50
2022-09-07T16:04:16.283Z,1.60
2022-09-07T16:07:03.277Z,1.40
2022-09-07T16:09:52.563Z,1.40
2022-09-07T16:15:48.782Z,1.60
2022-09-07T16:18:36.456Z,1.50
2022-09-07T16:21:26.299Z,1.60
2022-09-07T16:24:13.538Z,1.60
2022-09-07T16:27:00.518Z,1.37
2022-09-07T16:29:48.021Z,1.80
2022-09-07T16:32:50.478Z,1.43
2022-09-07T16:35:37.449Z,1.60
2022-09-07T16:41:31.951Z,1.60
2022-09-07T16:44:19.149Z,2.20
2022-09-07T16:47:07.863Z,1.50
2022-09-07T16:49:55.615Z,1.60
2022-09-07T16:52:42.532Z,1.50
2022-09-07T16:55:29.451Z,1.97
2022-09-07T17:01:35.083Z,1.90
2022-09-07T17:04:22.297Z,1.73
2022-09-07T17:07:09.314Z,1.33
2022-09-07T17:09:56.545Z,1.60
2022-09-07T17:12:43.436Z,1.80
2022-09-07T17:15:33.566Z,1.70
2022-09-07T17:19:38.561Z,2.00
2022-09-07T17:21:39.443Z,1.70
2022-09-07T17:24:26.401Z,1.73
2022-09-07T17:27:13.449Z,1.90
2022-09-07T17:30:00.412Z,1.80
2022-09-07T17:32:47.351Z,1.60
2022-09-07T17:35:37.391Z,1.70
2022-09-07T17:41:31.380Z,1.80
2022-09-07T17:44:18.306Z,1.90
2022-09-07T17:47:05.798Z,1.90
2022-09-07T17:49:52.679Z,1.47
2022-09-07T17:52:41.126Z,2.30
2022-09-07T17:55:32.503Z,1.87
2022-09-07T17:58:19.406Z,1.53
2022-09-07T18:01:10.031Z,1.80
2022-09-07T18:03:57.483Z,2.10
2022-09-07T18:06:44.397Z,1.70
2022-09-07T18:09:31.370Z,1.90
2022-09-07T18:12:18.537Z,1.60
2022-09-07T18:15:06.173Z,1.60
2022-09-07T18:17:53.385Z,2.00
2022-09-07T18:20:42.357Z,2.00
2022-09-07T18:23:29.336Z,2.00
2022-09-07T18:26:16.270Z,1.93
2022-09-07T18:29:04.009Z,2.60
2022-09-07T18:31:51.631Z,2.30
2022-09-07T18:34:40.760Z,2.07
2022-09-07T18:37:28.323Z,2.20
2022-09-07T18:40:21.472Z,2.30
2022-09-07T18:43:09.346Z,2.13
2022-09-07T18:46:01.733Z,2.17
2022-09-07T18:48:49.355Z,2.30
2022-09-07T18:52:51.433Z,2.07
2022-09-07T18:54:43.197Z,2.10
2022-09-07T18:57:30.176Z,2.17
2022-09-07T19:00:17.970Z,2.20
2022-09-07T19:03:05.029Z,2.40
2022-09-07T19:06:03.829Z,2.33
2022-09-07T19:08:51.080Z,2.00
2022-09-07T19:11:40.855Z,2.37
2022-09-07T19:14:27.944Z,2.10
2022-09-07T19:17:14.852Z,2.57
2022-09-07T19:20:01.856Z,2.00
2022-09-07T19:22:48.929Z,2.00
2022-09-07T19:25:40.194Z,2.90
2022-09-07T19:28:27.324Z,2.53
2022-09-07T19:31:14.287Z,2.33
2022-09-07T19:34:02.665Z,2.80
2022-09-07T19:36:49.555Z,2.60
2022-09-07T19:39:36.978Z,2.50
2022-09-07T19:42:24.915Z,2.20
2022-09-07T19:45:12.021Z,2.00
2022-09-07T19:47:58.935Z,2.50
2022-09-07T19:50:46.834Z,2.43
2022-09-07T19:53:36.022Z,2.40
2022-09-07T19:56:23.994Z,2.00
2022-09-07T19:59:11.493Z,2.60
2022-09-07T20:01:58.473Z,2.30
2022-09-07T20:04:45.393Z,2.37
2022-09-07T20:07:32.321Z,2.27
2022-09-07T20:10:19.240Z,2.40
2022-09-07T20:13:06.138Z,2.80
2022-09-07T20:15:53.146Z,2.83
2022-09-07T20:18:40.653Z,2.53
2022-09-07T20:21:27.574Z,2.50
2022-09-07T20:24:14.845Z,2.67
2022-09-07T20:27:02.785Z,2.60
2022-09-07T20:29:51.487Z,2.63
2022-09-07T20:32:38.494Z,2.03
2022-09-07T20:35:25.578Z,2.33
2022-09-07T20:38:12.497Z,2.33
2022-09-07T20:41:01.032Z,2.13
2022-09-07T20:43:49.681Z,2.23
2022-09-07T20:46:36.752Z,2.50
2022-09-07T20:49:23.742Z,3.07
2022-09-07T20:52:10.669Z,3.20
2022-09-07T20:54:57.594Z,2.67
2022-09-07T20:57:44.489Z,2.70
2022-09-07T21:00:32.305Z,3.03
2022-09-07T21:03:19.487Z,3.20
2022-09-07T21:06:08.232Z,3.07
2022-09-07T21:08:56.837Z,2.63
2022-09-07T21:11:48.569Z,2.70
2022-09-07T21:14:36.258Z,2.40
2022-09-07T21:17:23.952Z,2.73
2022-09-07T21:20:10.953Z,2.40
2022-09-07T21:22:58.354Z,2.53
2022-09-07T21:25:45.285Z,2.80
2022-09-07T21:28:32.438Z,3.20
2022-09-07T21:31:19.360Z,2.47
2022-09-07T21:34:06.325Z,2.43
2022-09-07T21:36:53.237Z,2.70
2022-09-07T21:39:40.259Z,3.47
2022-09-07T21:42:27.199Z,4.00
2022-09-07T21:45:14.220Z,4.10
2022-09-07T21:48:01.278Z,2.27
2022-09-07T21:50:48.241Z,2.90
2022-09-07T21:53:35.453Z,2.53
2022-09-07T21:56:23.005Z,2.97
2022-09-07T21:59:09.993Z,3.17
2022-09-07T22:01:56.965Z,3.40
2022-09-07T22:04:44.002Z,3.53
2022-09-07T22:07:31.540Z,3.10
2022-09-07T22:10:18.471Z,3.13
2022-09-07T22:13:05.410Z,3.73
2022-09-07T22:15:52.358Z,3.10
2022-09-07T22:18:42.922Z,3.27
2022-09-07T22:21:30.607Z,2.90
2022-09-07T22:24:17.521Z,3.27
2022-09-07T22:27:04.607Z,3.53
2022-09-07T22:29:51.874Z,3.70
2022-09-07T22:32:38.754Z,3.80
2022-09-07T22:35:25.774Z,3.57
2022-09-07T22:38:13.019Z,3.00
2022-09-07T22:41:09.980Z,3.13
2022-09-07T22:43:57.379Z,2.90
2022-09-07T22:46:45.764Z,2.80
2022-09-07T22:49:32.673Z,3.00
2022-09-07T22:52:19.575Z,3.50
2022-09-07T22:55:07.017Z,3.23
2022-09-07T22:57:53.933Z,2.63
2022-09-07T23:00:40.872Z,2.50
2022-09-07T23:03:29.270Z,2.60
2022-09-07T23:06:31.167Z,2.27
2022-09-07T23:09:18.813Z,2.47
2022-09-07T23:12:06.234Z,2.70
2022-09-07T23:14:53.148Z,2.70
2022-09-07T23:17:40.043Z,2.60
2022-09-07T23:20:26.969Z,2.90
2022-09-07T23:23:14.458Z,2.57
2022-09-07T23:26:03.088Z,2.63
2022-09-07T23:29:02.166Z,2.10
2022-09-07T23:31:49.189Z,2.67
2022-09-07T23:34:36.409Z,2.60
2022-09-07T23:37:23.504Z,2.60
2022-09-07T23:40:11.183Z,2.73
2022-09-07T23:42:58.278Z,2.10
2022-09-07T23:45:45.211Z,2.50
2022-09-07T23:48:32.321Z,2.83
2022-09-07T23:51:23.760Z,2.60
2022-09-07T23:54:11.302Z,2.67
2022-09-07T23:56:58.247Z,3.00
2022-09-07T23:59:45.178Z,2.77
